createdAt,value
2023-03-11T00:00:59.708Z,0.40
2023-03-11T00:03:56.566Z,0.50
2023-03-11T00:06:53.409Z,0.50
2023-03-11T00:09:50.222Z,0.40
2023-03-11T00:12:47.023Z,0.30
2023-03-11T00:15:48.404Z,0.30
2023-03-11T00:18:45.226Z,0.30
2023-03-11T00:21:42.023Z,0.60
2023-03-11T00:24:38.849Z,0.60
2023-03-11T00:27:37.189Z,0.50
2023-03-11T00:30:34.121Z,0.50
2023-03-11T00:33:31.252Z,0.60
2023-03-11T00:36:31.933Z,0.80
2023-03-11T00:39:28.701Z,0.80
2023-03-11T00:42:25.554Z,0.70
2023-03-11T00:45:22.880Z,0.50
2023-03-11T00:48:20.060Z,0.60
2023-03-11T00:51:16.923Z,0.50
2023-03-11T00:54:13.767Z,0.60
2023-03-11T00:57:10.575Z,0.70
2023-03-11T01:00:11.852Z,0.70
2023-03-11T01:03:09.401Z,0.60
2023-03-11T01:06:06.901Z,0.60
2023-03-11T01:09:04.824Z,0.60
2023-03-11T01:12:01.659Z,0.40
2023-03-11T01:14:58.700Z,0.40
2023-03-11T01:17:55.614Z,0.20
2023-03-11T01:20:52.835Z,0.30
2023-03-11T01:23:49.674Z,0.30
2023-03-11T01:26:46.478Z,0.30
2023-03-11T01:29:43.302Z,0.30
2023-03-11T01:32:40.239Z,0.40
2023-03-11T01:35:37.252Z,0.60
2023-03-11T01:38:34.206Z,0.50
2023-03-11T01:41:31.170Z,0.50
2023-03-11T01:44:28.109Z,0.40
2023-03-11T01:47:37.805Z,0.40
2023-03-11T01:50:43.272Z,0.40
2023-03-11T01:53:40.452Z,0.40
2023-03-11T01:56:38.956Z,0.50
2023-03-11T01:59:46.970Z,0.40
2023-03-11T02:02:52.099Z,0.40
2023-03-11T02:05:52.647Z,0.30
2023-03-11T02:08:50.044Z,0.30
2023-03-11T02:11:46.875Z,0.30
2023-03-11T02:14:48.090Z,0.40
2023-03-11T02:17:45.169Z,0.40
2023-03-11T02:21:23.318Z,0.30
2023-03-11T02:24:30.798Z,0.30
2023-03-11T02:27:31.150Z,0.20
2023-03-11T02:30:28.941Z,0.30
2023-03-11T02:33:32.232Z,0.30
2023-03-11T02:36:38.988Z,0.20
2023-03-11T02:39:47.368Z,0.30
2023-03-11T02:42:44.270Z,0.30
2023-03-11T02:45:43.759Z,0.20
2023-03-11T02:48:41.116Z,0.20
2023-03-11T02:51:37.943Z,0.20
2023-03-11T02:54:34.809Z,0.20
2023-03-11T02:57:31.699Z,0.20
2023-03-11T03:00:29.042Z,0.10
2023-03-11T03:03:25.998Z,0.10
2023-03-11T03:06:23.054Z,0.10
2023-03-11T03:09:19.947Z,0.10
2023-03-11T03:12:16.749Z,0.10
2023-03-11T03:15:15.936Z,0.10
2023-03-11T03:18:12.743Z,0.20
2023-03-11T03:21:09.571Z,0.10
2023-03-11T03:24:06.861Z,0.20
2023-03-11T03:27:03.693Z,0.10
2023-03-11T03:30:00.541Z,0.20
2023-03-11T03:32:57.371Z,0.10
2023-03-11T03:35:54.235Z,0.10
2023-03-11T03:38:56.631Z,0.10
2023-03-11T03:41:53.525Z,0.00
2023-03-11T03:44:50.530Z,0.00
2023-03-11T03:47:47.357Z,0.00
2023-03-11T03:50:44.217Z,-0.10
2023-03-11T03:53:41.346Z,-0.10
2023-03-11T03:56:38.301Z,-0.20
2023-03-11T03:59:35.225Z,-0.10
2023-03-11T04:02:32.078Z,-0.20
2023-03-11T04:05:28.987Z,-0.10
2023-03-11T04:08:25.779Z,-0.10
2023-03-11T04:11:22.950Z,-0.10
2023-03-11T04:14:19.823Z,-0.10
2023-03-11T04:17:17.804Z,-0.10
2023-03-11T04:20:14.747Z,-0.10
2023-03-11T04:23:12.926Z,-0.20
2023-03-11T04:26:09.852Z,-0.20
2023-03-11T04:29:06.701Z,-0.30
2023-03-11T04:32:03.594Z,-0.30
2023-03-11T04:35:00.403Z,-0.30
2023-03-11T04:37:57.240Z,-0.40
2023-03-11T04:40:54.061Z,-0.30
2023-03-11T04:43:50.882Z,-0.30
2023-03-11T04:46:47.679Z,-0.30
2023-03-11T04:49:44.917Z,-0.40
2023-03-11T04:52:42.041Z,-0.30
2023-03-11T04:55:40.072Z,-0.30
2023-03-11T04:58:36.908Z,-0.30
2023-03-11T05:01:33.803Z,-0.30
2023-03-11T05:04:30.747Z,-0.40
2023-03-11T05:07:27.681Z,-0.40
2023-03-11T05:10:24.503Z,-0.50
2023-03-11T05:13:21.601Z,-0.50
2023-03-11T05:16:18.440Z,-0.40
2023-03-11T05:19:34.182Z,-0.50
2023-03-11T05:22:30.988Z,-0.50
2023-03-11T05:25:27.822Z,-0.50
2023-03-11T05:28:24.630Z,-0.50
2023-03-11T05:31:21.509Z,-0.50
2023-03-11T05:34:18.688Z,-0.60
2023-03-11T05:37:15.711Z,-0.50
2023-03-11T05:40:12.782Z,-0.60
2023-03-11T05:43:09.625Z,-0.60
2023-03-11T05:46:06.549Z,-0.60
2023-03-11T05:49:03.611Z,-0.60
2023-03-11T05:52:00.415Z,-0.60
2023-03-11T05:54:57.246Z,-0.60
2023-03-11T05:57:54.062Z,-0.50
2023-03-11T06:00:50.901Z,-0.40
2023-03-11T06:03:48.145Z,-0.50
2023-03-11T06:06:45.310Z,-0.50
2023-03-11T06:09:42.171Z,-0.50
2023-03-11T06:12:39.007Z,-0.50
2023-03-11T06:15:38.636Z,-0.50
2023-03-11T06:18:35.498Z,-0.50
2023-03-11T06:21:32.430Z,-0.60
2023-03-11T06:24:29.481Z,-0.60
2023-03-11T06:27:26.304Z,-0.50
2023-03-11T06:30:24.899Z,-0.60
2023-03-11T06:33:21.713Z,-0.60
2023-03-11T06:36:20.217Z,-0.60
2023-03-11T06:39:17.176Z,-0.70
2023-03-11T06:42:14.040Z,-0.60
2023-03-11T06:45:11.171Z,-0.70
2023-03-11T06:48:07.970Z,-0.60
2023-03-11T06:51:05.372Z,-0.70
2023-03-11T06:54:02.226Z,-0.60
2023-03-11T06:56:59.033Z,-0.70
2023-03-11T06:59:55.912Z,-0.60
2023-03-11T07:02:52.726Z,-0.40
2023-03-11T07:05:51.932Z,-0.40
2023-03-11T07:08:51.241Z,-0.50
2023-03-11T07:11:48.277Z,-0.40
2023-03-11T07:14:45.118Z,-0.30
2023-03-11T07:17:42.040Z,-0.30
2023-03-11T07:20:38.886Z,-0.30
2023-03-11T07:23:36.175Z,-0.20
2023-03-11T07:26:35.373Z,-0.20
2023-03-11T07:29:32.317Z,-0.20
2023-03-11T07:32:29.233Z,-0.20
2023-03-11T07:35:26.069Z,-0.10
2023-03-11T07:38:22.920Z,0.00
2023-03-11T07:41:20.560Z,-0.10
2023-03-11T07:44:18.433Z,0.00
2023-03-11T07:47:15.295Z,0.10
2023-03-11T07:50:12.291Z,-0.10
2023-03-11T07:53:09.117Z,-0.10
2023-03-11T07:56:07.782Z,-0.20
2023-03-11T07:59:05.838Z,0.00
2023-03-11T08:02:03.185Z,0.20
2023-03-11T08:05:00.037Z,0.10
2023-03-11T08:07:56.884Z,0.10
2023-03-11T08:10:53.741Z,0.30
2023-03-11T08:13:51.322Z,0.40
2023-03-11T08:16:48.677Z,0.50
2023-03-11T08:19:45.526Z,0.60
2023-03-11T08:22:55.535Z,0.50
2023-03-11T08:25:53.978Z,0.50
2023-03-11T08:28:50.983Z,0.30
2023-03-11T08:31:47.806Z,0.30
2023-03-11T08:34:44.615Z,0.20
2023-03-11T08:37:41.622Z,0.20
2023-03-11T08:40:38.462Z,0.10
2023-03-11T08:43:35.761Z,0.20
2023-03-11T08:46:39.796Z,0.20
2023-03-11T08:49:38.572Z,0.30
2023-03-11T08:52:35.899Z,0.50
2023-03-11T08:55:32.954Z,0.30
2023-03-11T08:58:30.069Z,0.30
2023-03-11T09:01:27.022Z,0.40
2023-03-11T09:04:23.913Z,0.60
2023-03-11T09:07:20.761Z,0.40
2023-03-11T09:10:18.304Z,0.50
2023-03-11T09:13:15.157Z,0.60
2023-03-11T09:16:20.314Z,0.50
2023-03-11T09:19:17.167Z,0.60
2023-03-11T09:22:14.274Z,0.80
2023-03-11T09:25:13.380Z,0.90
2023-03-11T09:28:10.225Z,0.80
2023-03-11T09:31:07.491Z,1.60
2023-03-11T09:34:04.349Z,2.20
2023-03-11T09:37:01.715Z,3.10
2023-03-11T09:39:59.544Z,3.80
2023-03-11T09:43:39.590Z,4.00
2023-03-11T09:47:06.255Z,3.50
2023-03-11T09:50:29.203Z,3.20
2023-03-11T09:53:37.994Z,2.90
2023-03-11T09:56:36.000Z,2.60
2023-03-11T09:59:34.837Z,1.80
2023-03-11T10:02:36.349Z,1.70
2023-03-11T10:05:33.506Z,1.70
2023-03-11T10:08:46.041Z,1.70
2023-03-11T10:11:57.948Z,1.60
2023-03-11T10:15:28.288Z,1.60
2023-03-11T10:18:25.105Z,2.00
2023-03-11T10:21:49.472Z,2.40
2023-03-11T10:25:20.993Z,2.50
2023-03-11T10:28:20.987Z,2.70
2023-03-11T10:31:47.432Z,2.70
2023-03-11T10:35:04.110Z,2.20
2023-03-11T10:38:18.239Z,1.80
2023-03-11T10:41:30.138Z,1.60
2023-03-11T10:44:36.449Z,1.40
2023-03-11T10:47:33.278Z,1.40
2023-03-11T10:50:36.417Z,1.40
2023-03-11T10:53:43.468Z,1.40
2023-03-11T10:56:41.701Z,1.30
2023-03-11T10:59:54.663Z,1.20
2023-03-11T11:02:58.233Z,1.20
2023-03-11T11:06:18.344Z,1.30
2023-03-11T11:09:21.798Z,1.60
2023-03-11T11:12:21.382Z,1.80
2023-03-11T11:15:55.530Z,1.90
2023-03-11T11:19:04.715Z,1.60
2023-03-11T11:22:04.705Z,1.50
2023-03-11T11:25:01.622Z,1.60
2023-03-11T11:28:24.809Z,1.50
2023-03-11T11:31:26.346Z,1.60
2023-03-11T11:34:26.978Z,1.40
2023-03-11T11:37:26.848Z,1.30
2023-03-11T11:40:33.033Z,1.40
2023-03-11T11:44:01.016Z,1.30
2023-03-11T11:47:20.336Z,1.10
2023-03-11T11:50:34.445Z,1.20
2023-03-11T11:53:52.393Z,1.30
2023-03-11T11:56:49.208Z,1.20
2023-03-11T11:59:47.085Z,1.30
2023-03-11T12:03:31.620Z,1.40
2023-03-11T12:07:02.140Z,1.70
2023-03-11T12:10:45.005Z,1.80
2023-03-11T12:14:02.009Z,1.70
2023-03-11T12:17:03.893Z,1.60
2023-03-11T12:20:18.624Z,1.60
2023-03-11T12:23:47.261Z,1.40
2023-03-11T12:26:47.226Z,1.60
2023-03-11T12:29:50.180Z,1.40
2023-03-11T12:32:57.604Z,1.30
2023-03-11T12:35:59.339Z,1.30
2023-03-11T12:38:57.215Z,1.30
2023-03-11T12:42:22.733Z,1.20
2023-03-11T12:45:53.293Z,1.40
2023-03-11T12:49:11.686Z,1.50
2023-03-11T12:52:11.803Z,1.40
2023-03-11T12:55:17.564Z,1.70
2023-03-11T12:58:53.794Z,1.80
2023-03-11T13:02:43.787Z,1.70
2023-03-11T13:06:14.246Z,1.80
2023-03-11T13:09:17.018Z,1.70
2023-03-11T13:12:44.189Z,1.80
2023-03-11T13:15:43.007Z,2.00
2023-03-11T13:18:49.004Z,1.80
2023-03-11T13:21:45.830Z,1.70
2023-03-11T13:24:51.046Z,1.60
2023-03-11T13:27:51.710Z,1.80
2023-03-11T13:30:53.462Z,2.10
2023-03-11T13:33:54.853Z,2.20
2023-03-11T13:36:58.650Z,2.10
2023-03-11T13:40:33.408Z,2.00
2023-03-11T13:43:30.399Z,2.20
2023-03-11T13:46:43.739Z,2.20
2023-03-11T13:49:53.812Z,2.30
2023-03-11T13:52:54.053Z,2.20
2023-03-11T13:55:51.331Z,2.10
2023-03-11T13:58:48.224Z,2.20
2023-03-11T14:02:08.833Z,2.20
2023-03-11T14:05:13.567Z,2.20
2023-03-11T14:08:26.983Z,2.30
2023-03-11T14:11:29.397Z,2.30
2023-03-11T14:15:00.628Z,2.30
2023-03-11T14:18:29.923Z,2.10
2023-03-11T14:21:27.884Z,2.10
2023-03-11T14:24:29.847Z,2.10
2023-03-11T14:27:26.797Z,2.10
2023-03-11T14:30:30.558Z,2.00
2023-03-11T14:33:28.278Z,2.20
2023-03-11T14:36:25.091Z,2.40
2023-03-11T14:39:46.250Z,2.60
2023-03-11T14:42:45.017Z,2.20
2023-03-11T14:45:43.084Z,2.20
2023-03-11T14:48:43.827Z,2.40
2023-03-11T14:51:41.299Z,2.50
2023-03-11T14:54:38.716Z,2.60
2023-03-11T14:57:45.890Z,2.30
2023-03-11T15:00:56.628Z,2.20
2023-03-11T15:04:06.399Z,2.40
2023-03-11T15:07:05.100Z,2.40
2023-03-11T15:10:02.631Z,2.40
2023-03-11T15:13:16.616Z,2.40
2023-03-11T15:16:37.894Z,2.40
2023-03-11T15:19:34.887Z,2.20
2023-03-11T15:22:41.581Z,2.00
2023-03-11T15:25:39.232Z,1.90
2023-03-11T15:28:38.968Z,2.00
2023-03-11T15:31:38.308Z,1.90
2023-03-11T15:34:35.341Z,2.00
2023-03-11T15:37:32.181Z,2.10
2023-03-11T15:40:44.398Z,2.30
2023-03-11T15:43:48.426Z,2.20
2023-03-11T15:46:45.851Z,2.20
2023-03-11T15:49:43.149Z,2.00
2023-03-11T15:52:39.967Z,2.00
2023-03-11T15:55:37.482Z,2.00
2023-03-11T15:58:35.564Z,2.10
2023-03-11T16:01:32.431Z,2.10
2023-03-11T16:04:29.384Z,1.90
2023-03-11T16:07:38.708Z,1.90
2023-03-11T16:10:36.627Z,2.00
2023-03-11T16:13:33.523Z,1.90
2023-03-11T16:16:30.526Z,1.90
2023-03-11T16:19:27.443Z,2.00
2023-03-11T16:22:36.142Z,2.00
2023-03-11T16:25:36.842Z,2.00
2023-03-11T16:28:33.638Z,2.00
2023-03-11T16:31:31.427Z,1.90
2023-03-11T16:34:28.334Z,1.80
2023-03-11T16:37:25.215Z,1.70
2023-03-11T16:40:26.634Z,1.70
2023-03-11T16:43:23.536Z,1.80
2023-03-11T16:46:20.483Z,1.70
2023-03-11T16:49:17.433Z,1.60
2023-03-11T16:52:14.360Z,1.60
2023-03-11T16:55:11.268Z,1.50
2023-03-11T16:58:08.733Z,1.40
2023-03-11T17:01:05.551Z,1.30
2023-03-11T17:04:02.383Z,1.20
2023-03-11T17:06:59.413Z,1.00
2023-03-11T17:09:57.158Z,0.90
2023-03-11T17:12:54.835Z,0.80
2023-03-11T17:16:03.855Z,0.80
2023-03-11T17:19:01.820Z,0.70
2023-03-11T17:21:58.648Z,0.60
2023-03-11T17:24:55.618Z,0.60
2023-03-11T17:27:52.441Z,0.60
2023-03-11T17:30:51.853Z,0.60
2023-03-11T17:33:49.455Z,0.50
2023-03-11T17:36:46.325Z,0.30
2023-03-11T17:39:43.152Z,0.30
2023-03-11T17:42:40.099Z,0.20
2023-03-11T17:45:39.890Z,0.20
2023-03-11T17:48:40.330Z,0.20
2023-03-11T17:51:39.761Z,0.00
2023-03-11T17:54:37.675Z,-0.10
2023-03-11T17:57:42.933Z,-0.20
2023-03-11T18:00:42.146Z,-0.30
2023-03-11T18:03:39.036Z,-0.30
2023-03-11T18:06:35.885Z,-0.30
2023-03-11T18:09:32.746Z,-0.30
2023-03-11T18:12:29.583Z,-0.30
2023-03-11T18:15:26.370Z,-0.50
2023-03-11T18:18:23.272Z,-0.40
2023-03-11T18:21:29.173Z,-0.40
2023-03-11T18:24:25.983Z,-0.60
2023-03-11T18:27:24.460Z,-0.80
2023-03-11T18:30:21.470Z,-0.80
2023-03-11T18:33:18.304Z,-0.90
2023-03-11T18:36:19.293Z,-1.00
2023-03-11T18:39:16.223Z,-1.00
2023-03-11T18:42:14.122Z,-1.00
2023-03-11T18:45:12.202Z,-1.10
2023-03-11T18:48:09.050Z,-1.10
2023-03-11T18:51:08.299Z,-1.10
2023-03-11T18:54:06.973Z,-1.10
2023-03-11T18:57:03.982Z,-1.20
2023-03-11T19:00:00.941Z,-1.20
2023-03-11T19:02:57.792Z,-1.30
2023-03-11T19:05:54.728Z,-1.30
2023-03-11T19:08:53.370Z,-1.20
2023-03-11T19:11:50.220Z,-1.30
2023-03-11T19:14:47.055Z,-1.40
2023-03-11T19:17:45.487Z,-1.40
2023-03-11T19:20:43.443Z,-1.50
2023-03-11T19:23:40.616Z,-1.60
2023-03-11T19:26:46.621Z,-1.70
2023-03-11T19:29:43.452Z,-1.70
2023-03-11T19:32:40.307Z,-1.60
2023-03-11T19:35:37.392Z,-1.70
2023-03-11T19:38:34.963Z,-1.70
2023-03-11T19:41:31.826Z,-1.80
2023-03-11T19:44:28.690Z,-1.80
2023-03-11T19:47:25.654Z,-1.80
2023-03-11T19:50:22.792Z,-1.80
2023-03-11T19:53:21.586Z,-1.80
2023-03-11T19:56:18.493Z,-1.90
2023-03-11T19:59:15.547Z,-1.90
2023-03-11T20:02:13.575Z,-1.90
2023-03-11T20:05:10.672Z,-2.00
2023-03-11T20:08:09.675Z,-1.90
2023-03-11T20:11:06.764Z,-1.90
2023-03-11T20:14:03.649Z,-2.00
2023-03-11T20:17:00.558Z,-2.00
2023-03-11T20:19:57.371Z,-2.00
2023-03-11T20:22:55.440Z,-2.10
2023-03-11T20:25:52.285Z,-2.10
2023-03-11T20:28:49.321Z,-2.10
2023-03-11T20:31:46.198Z,-2.10
2023-03-11T20:34:43.178Z,-2.10
2023-03-11T20:37:40.209Z,-2.20
2023-03-11T20:40:37.013Z,-2.20
2023-03-11T20:43:34.971Z,-2.20
2023-03-11T20:46:34.185Z,-2.20
2023-03-11T20:49:31.084Z,-2.30
2023-03-11T20:52:32.268Z,-2.30
2023-03-11T20:55:29.134Z,-2.50
2023-03-11T20:58:26.576Z,-2.40
2023-03-11T21:01:30.078Z,-2.40
2023-03-11T21:04:27.080Z,-2.60
2023-03-11T21:07:24.034Z,-2.60
2023-03-11T21:10:20.888Z,-2.60
2023-03-11T21:13:17.887Z,-2.50
2023-03-11T21:16:15.681Z,-2.50
2023-03-11T21:19:13.599Z,-2.60
2023-03-11T21:22:11.765Z,-2.70
2023-03-11T21:25:09.129Z,-2.70
2023-03-11T21:28:06.019Z,-2.70
2023-03-11T21:31:11.182Z,-2.70
2023-03-11T21:34:11.739Z,-2.70
2023-03-11T21:37:08.728Z,-2.70
2023-03-11T21:40:07.472Z,-2.80
2023-03-11T21:43:04.323Z,-2.90
2023-03-11T21:46:01.637Z,-2.80
2023-03-11T21:48:59.668Z,-2.90
2023-03-11T21:51:56.614Z,-2.90
2023-03-11T21:54:53.536Z,-2.90
2023-03-11T21:57:50.425Z,-2.90
2023-03-11T22:00:47.817Z,-3.00
2023-03-11T22:03:44.799Z,-3.00
2023-03-11T22:06:41.774Z,-3.00
2023-03-11T22:09:38.618Z,-2.90
2023-03-11T22:12:36.234Z,-3.00
2023-03-11T22:15:33.178Z,-3.00
2023-03-11T22:18:30.247Z,-3.10
2023-03-11T22:21:27.100Z,-3.20
2023-03-11T22:24:23.924Z,-3.20
2023-03-11T22:27:20.729Z,-3.20
2023-03-11T22:30:17.657Z,-3.20
2023-03-11T22:33:14.506Z,-3.20
2023-03-11T22:36:11.709Z,-3.30
2023-03-11T22:39:08.553Z,-3.30
2023-03-11T22:42:05.729Z,-3.30
2023-03-11T22:45:04.797Z,-3.30
2023-03-11T22:48:01.616Z,-3.40
2023-03-11T22:50:58.429Z,-3.40
2023-03-11T22:53:55.248Z,-3.60
2023-03-11T22:56:52.285Z,-3.50
2023-03-11T22:59:49.145Z,-3.50
2023-03-11T23:02:54.301Z,-3.50
2023-03-11T23:05:51.207Z,-3.50
2023-03-11T23:08:48.965Z,-3.50
2023-03-11T23:11:45.786Z,-3.70
2023-03-11T23:14:45.251Z,-3.70
2023-03-11T23:17:42.369Z,-3.70
2023-03-11T23:20:41.423Z,-3.70
2023-03-11T23:23:38.263Z,-3.60
2023-03-11T23:26:35.722Z,-3.70
2023-03-11T23:29:32.796Z,-3.70
2023-03-11T23:32:29.654Z,-3.70
2023-03-11T23:35:26.546Z,-3.80
2023-03-11T23:38:23.367Z,-3.90
2023-03-11T23:41:21.700Z,-3.90
2023-03-11T23:44:18.540Z,-4.00
2023-03-11T23:47:15.365Z,-3.80
2023-03-11T23:50:12.253Z,-3.80
2023-03-11T23:53:09.091Z,-3.90
2023-03-11T23:56:11.836Z,-4.00
2023-03-11T23:59:08.651Z,-3.90
